createdAt,value
2018-02-22T00:00:15.616Z,41.80
2018-02-22T00:02:43.632Z,41.70
2018-02-22T00:05:11.945Z,41.80
2018-02-22T00:07:40.210Z,41.80
2018-02-22T00:10:09.634Z,41.80
2018-02-22T00:12:37.924Z,41.90
2018-02-22T00:15:06.466Z,41.90
2018-02-22T00:17:34.753Z,41.90
2018-02-22T00:20:03.025Z,42.00
2018-02-22T00:22:31.330Z,42.00
2018-02-22T00:25:02.010Z,42.00
2018-02-22T00:27:30.281Z,42.00
2018-02-22T00:29:58.541Z,42.10
2018-02-22T00:32:26.832Z,42.10
2018-02-22T00:34:55.102Z,42.20
2018-02-22T00:37:24.501Z,42.00
2018-02-22T00:39:52.776Z,42.30
2018-02-22T00:42:21.033Z,42.40
2018-02-22T00:44:49.350Z,42.50
2018-02-22T00:47:17.638Z,42.50
2018-02-22T00:49:45.925Z,42.60
2018-02-22T00:52:14.962Z,42.60
2018-02-22T00:54:43.269Z,42.50
2018-02-22T00:57:11.547Z,42.60
2018-02-22T00:59:40.095Z,42.60
2018-02-22T01:02:08.381Z,42.60
2018-02-22T01:04:36.657Z,42.70
2018-02-22T01:07:19.302Z,42.60
2018-02-22T01:09:47.889Z,42.80
2018-02-22T01:12:16.157Z,42.80
2018-02-22T01:14:44.445Z,42.90
2018-02-22T01:17:12.759Z,42.90
2018-02-22T01:19:41.021Z,43.10
2018-02-22T01:22:10.078Z,43.10
2018-02-22T01:24:38.363Z,43.10
2018-02-22T01:27:07.484Z,43.10
2018-02-22T01:29:35.771Z,43.20
2018-02-22T01:32:04.834Z,43.40
2018-02-22T01:34:33.111Z,43.40
2018-02-22T01:37:01.717Z,43.50
2018-02-22T01:39:30.536Z,43.50
2018-02-22T01:41:59.568Z,43.60
2018-02-22T01:44:27.878Z,43.60
2018-02-22T01:46:56.154Z,43.60
2018-02-22T01:49:24.479Z,43.70
2018-02-22T01:51:53.524Z,43.80
2018-02-22T01:54:21.826Z,43.80
2018-02-22T01:56:50.870Z,44.00
2018-02-22T01:59:19.170Z,44.00
2018-02-22T02:01:47.448Z,44.00
2018-02-22T02:04:15.735Z,44.00
2018-02-22T02:06:44.006Z,44.00
2018-02-22T02:09:12.561Z,44.00
2018-02-22T02:11:40.839Z,44.00
2018-02-22T02:14:09.103Z,44.00
2018-02-22T02:16:37.412Z,43.90
2018-02-22T02:19:05.672Z,43.90
2018-02-22T02:21:33.987Z,43.90
2018-02-22T02:24:02.270Z,44.00
2018-02-22T02:26:30.825Z,44.30
2018-02-22T02:28:59.099Z,44.40
2018-02-22T02:31:27.373Z,44.00
2018-02-22T02:33:55.645Z,44.00
2018-02-22T02:36:23.930Z,44.10
2018-02-22T02:38:52.213Z,44.10
2018-02-22T02:41:20.489Z,44.10
2018-02-22T02:43:48.796Z,44.20
2018-02-22T02:46:17.837Z,44.40
2018-02-22T02:48:47.250Z,45.00
2018-02-22T02:51:15.510Z,44.50
2018-02-22T02:53:44.065Z,44.50
2018-02-22T02:56:13.102Z,44.50
2018-02-22T02:58:41.374Z,44.40
2018-02-22T03:01:09.727Z,44.50
2018-02-22T03:03:37.987Z,44.50
2018-02-22T03:06:07.081Z,44.60
2018-02-22T03:08:35.345Z,44.50
2018-02-22T03:11:03.625Z,44.50
2018-02-22T03:13:31.904Z,44.60
2018-02-22T03:16:00.186Z,44.70
2018-02-22T03:18:28.446Z,44.70
2018-02-22T03:20:56.733Z,44.90
2018-02-22T03:23:24.988Z,44.90
2018-02-22T03:25:53.571Z,44.90
2018-02-22T03:28:21.816Z,45.00
2018-02-22T03:31:09.872Z,45.00
2018-02-22T03:33:38.141Z,45.10
2018-02-22T03:36:06.426Z,45.20
2018-02-22T03:38:34.751Z,45.30
2018-02-22T03:41:03.046Z,45.60
2018-02-22T03:43:32.100Z,45.80
2018-02-22T03:46:00.371Z,45.80
2018-02-22T03:48:28.666Z,45.80
2018-02-22T03:50:57.003Z,45.80
2018-02-22T03:53:26.272Z,46.10
2018-02-22T03:55:55.428Z,46.60
2018-02-22T03:58:23.693Z,46.60
2018-02-22T04:00:52.208Z,46.60
2018-02-22T04:03:21.275Z,46.80
2018-02-22T04:05:49.578Z,46.60
2018-02-22T04:08:17.854Z,46.70
2018-02-22T04:10:46.418Z,46.80
2018-02-22T04:13:14.717Z,46.90
2018-02-22T04:15:43.089Z,47.00
2018-02-22T04:18:11.389Z,47.10
2018-02-22T04:20:39.669Z,47.20
2018-02-22T04:23:08.232Z,47.10
2018-02-22T04:25:36.487Z,47.00
2018-02-22T04:28:04.785Z,47.00
2018-02-22T04:30:33.087Z,47.00
2018-02-22T04:33:01.366Z,47.10
2018-02-22T04:35:29.666Z,47.10
2018-02-22T04:37:58.701Z,47.00
2018-02-22T04:40:27.306Z,47.00
2018-02-22T04:42:55.573Z,47.00
2018-02-22T04:45:24.136Z,47.00
2018-02-22T04:47:52.390Z,46.80
2018-02-22T04:50:21.417Z,46.70
2018-02-22T04:52:49.716Z,46.70
2018-02-22T04:55:18.010Z,46.70
2018-02-22T04:57:46.583Z,46.70
2018-02-22T05:00:14.851Z,46.80
2018-02-22T05:02:43.782Z,46.90
2018-02-22T05:05:12.847Z,47.90
2018-02-22T05:07:41.241Z,47.50
2018-02-22T05:10:10.362Z,47.40
2018-02-22T05:12:39.397Z,47.90
2018-02-22T05:15:07.691Z,47.80
2018-02-22T05:17:35.961Z,48.00
2018-02-22T05:20:04.278Z,48.00
2018-02-22T05:22:33.332Z,47.80
2018-02-22T05:25:01.880Z,47.80
2018-02-22T05:27:30.914Z,47.70
2018-02-22T05:29:59.201Z,47.70
2018-02-22T05:32:27.520Z,47.90
2018-02-22T05:34:55.783Z,47.90
2018-02-22T05:37:24.070Z,48.50
2018-02-22T05:39:52.345Z,48.10
2018-02-22T05:42:21.478Z,48.10
2018-02-22T05:44:49.829Z,48.10
2018-02-22T05:47:18.411Z,48.00
2018-02-22T05:49:46.674Z,48.00
2018-02-22T05:52:14.941Z,47.80
2018-02-22T05:54:43.245Z,47.90
2018-02-22T05:57:12.273Z,48.50
2018-02-22T05:59:40.919Z,47.90
2018-02-22T06:02:09.207Z,47.90
2018-02-22T06:04:37.464Z,47.90
2018-02-22T06:07:05.770Z,47.80
2018-02-22T06:09:34.823Z,48.00
2018-02-22T06:12:03.132Z,48.00
2018-02-22T06:14:32.185Z,48.40
2018-02-22T06:17:00.791Z,48.20
2018-02-22T06:19:29.068Z,48.30
2018-02-22T06:21:57.335Z,48.30
2018-02-22T06:24:25.743Z,48.10
2018-02-22T06:26:54.009Z,48.20
2018-02-22T06:29:22.299Z,48.20
2018-02-22T06:31:50.724Z,48.00
2018-02-22T06:34:19.014Z,48.00
2018-02-22T06:36:47.289Z,48.00
2018-02-22T06:39:15.918Z,48.00
2018-02-22T06:41:44.192Z,48.00
2018-02-22T06:44:12.464Z,48.00
2018-02-22T06:46:40.778Z,48.00
2018-02-22T06:49:12.194Z,47.90
2018-02-22T06:51:40.505Z,47.90
2018-02-22T06:54:09.544Z,48.20
2018-02-22T06:56:37.847Z,48.20
2018-02-22T06:59:06.114Z,48.30
2018-02-22T07:01:34.429Z,48.30
2018-02-22T07:04:03.464Z,48.30
2018-02-22T07:06:32.020Z,48.30
2018-02-22T07:09:00.283Z,48.30
2018-02-22T07:11:29.318Z,48.30
2018-02-22T07:13:57.659Z,48.30
2018-02-22T07:16:25.884Z,48.30
2018-02-22T07:18:54.185Z,48.30
2018-02-22T07:21:22.437Z,48.30
2018-02-22T07:23:50.705Z,48.40
2018-02-22T07:26:19.007Z,48.50
2018-02-22T07:28:47.319Z,48.30
2018-02-22T07:31:15.561Z,48.40
2018-02-22T07:33:43.834Z,48.30
2018-02-22T07:36:12.132Z,48.40
2018-02-22T07:38:40.739Z,48.50
2018-02-22T07:41:09.845Z,48.50
2018-02-22T07:43:38.132Z,48.50
2018-02-22T07:46:10.809Z,48.50
2018-02-22T07:48:39.840Z,48.60
2018-02-22T07:51:08.937Z,48.60
2018-02-22T07:53:37.220Z,48.80
2018-02-22T07:56:05.489Z,48.70
2018-02-22T07:58:34.292Z,48.70
2018-02-22T08:01:02.556Z,48.80
2018-02-22T08:03:32.095Z,48.80
2018-02-22T08:06:01.089Z,48.90
2018-02-22T08:08:29.626Z,48.80
2018-02-22T08:10:57.954Z,48.80
2018-02-22T08:13:26.275Z,48.90
2018-02-22T08:15:54.547Z,48.80
2018-02-22T08:18:23.589Z,48.80
2018-02-22T08:20:51.894Z,48.80
2018-02-22T08:23:20.184Z,48.80
2018-02-22T08:25:49.238Z,48.80
2018-02-22T08:28:17.548Z,48.80
2018-02-22T08:30:46.226Z,48.80
2018-02-22T08:33:14.688Z,48.80
2018-02-22T08:35:42.965Z,48.70
2018-02-22T08:38:11.252Z,48.60
2018-02-22T08:40:39.522Z,48.70
2018-02-22T08:43:07.812Z,48.70
2018-02-22T08:45:36.776Z,48.60
2018-02-22T08:48:05.091Z,48.60
2018-02-22T08:50:34.125Z,49.10
2018-02-22T08:53:02.739Z,48.70
2018-02-22T08:55:31.012Z,48.70
2018-02-22T08:57:59.581Z,48.70
2018-02-22T09:00:27.850Z,48.60
2018-02-22T09:02:56.117Z,48.60
2018-02-22T09:05:26.381Z,48.40
2018-02-22T09:07:54.802Z,48.40
2018-02-22T09:10:23.127Z,48.60
2018-02-22T09:12:51.841Z,47.90
2018-02-22T09:15:20.262Z,47.60
2018-02-22T09:17:49.285Z,47.30
2018-02-22T09:20:17.581Z,47.20
2018-02-22T09:22:45.856Z,47.00
2018-02-22T09:25:14.137Z,46.60
2018-02-22T09:27:42.416Z,46.20
2018-02-22T09:30:10.708Z,46.20
2018-02-22T09:32:39.229Z,45.90
2018-02-22T09:35:07.489Z,45.90
2018-02-22T09:37:35.831Z,46.00
2018-02-22T09:40:06.316Z,45.80
2018-02-22T09:42:35.534Z,45.40
2018-02-22T09:45:03.919Z,45.30
2018-02-22T09:47:33.015Z,45.20
2018-02-22T09:50:01.346Z,45.20
2018-02-22T09:52:29.654Z,45.20
2018-02-22T09:54:58.786Z,44.70
2018-02-22T09:57:27.191Z,44.60
2018-02-22T09:59:55.492Z,44.40
2018-02-22T10:02:24.537Z,44.40
2018-02-22T10:04:52.816Z,44.40
2018-02-22T10:07:21.086Z,44.20
2018-02-22T10:09:49.657Z,44.30
2018-02-22T10:12:17.943Z,44.30
2018-02-22T10:14:46.216Z,44.10
2018-02-22T10:17:14.583Z,44.00
2018-02-22T10:19:43.964Z,44.60
2018-02-22T10:22:13.036Z,43.80
2018-02-22T10:24:41.296Z,43.80
2018-02-22T10:27:10.403Z,43.80
2018-02-22T10:29:38.714Z,43.90
2018-02-22T10:32:07.929Z,43.50
2018-02-22T10:34:36.181Z,43.50
2018-02-22T10:37:04.459Z,43.50
2018-02-22T10:39:32.839Z,43.20
2018-02-22T10:42:01.098Z,42.90
2018-02-22T10:44:29.434Z,43.10
2018-02-22T10:46:57.707Z,43.00
2018-02-22T10:49:26.840Z,43.00
2018-02-22T10:51:55.125Z,43.00
2018-02-22T10:54:23.436Z,43.00
2018-02-22T10:56:52.503Z,42.80
2018-02-22T10:59:20.800Z,42.70
2018-02-22T11:01:54.844Z,42.40
2018-02-22T11:04:23.401Z,42.50
2018-02-22T11:06:52.668Z,42.40
2018-02-22T11:09:23.370Z,42.30
2018-02-22T11:11:52.810Z,42.50
2018-02-22T11:14:21.059Z,42.50
2018-02-22T11:16:49.359Z,42.40
2018-02-22T11:19:17.651Z,41.80
2018-02-22T11:21:47.013Z,41.20
2018-02-22T11:24:16.241Z,41.20
2018-02-22T11:26:44.500Z,40.70
2018-02-22T11:29:12.824Z,40.80
2018-02-22T11:31:41.211Z,41.00
2018-02-22T11:34:09.500Z,40.90
2018-02-22T11:36:38.547Z,40.80
2018-02-22T11:39:06.939Z,40.70
2018-02-22T11:41:35.203Z,41.10
2018-02-22T11:44:03.725Z,40.70
2018-02-22T11:46:31.998Z,40.60
2018-02-22T11:49:00.252Z,41.50
2018-02-22T11:51:28.563Z,41.00
2018-02-22T11:53:56.892Z,41.30
2018-02-22T11:56:25.193Z,41.20
2018-02-22T11:58:53.545Z,40.30
2018-02-22T12:01:21.823Z,40.50
2018-02-22T12:03:50.197Z,40.40
2018-02-22T12:06:18.442Z,38.30
2018-02-22T12:08:47.632Z,38.90
2018-02-22T12:11:16.940Z,38.30
2018-02-22T12:13:45.250Z,36.90
2018-02-22T12:16:13.566Z,36.10
2018-02-22T12:18:41.964Z,33.80
2018-02-22T12:21:10.342Z,33.60
2018-02-22T12:23:38.758Z,32.90
2018-02-22T12:26:07.790Z,30.20
2018-02-22T12:28:36.070Z,30.20
2018-02-22T12:31:04.377Z,31.00
2018-02-22T12:33:32.658Z,29.90
2018-02-22T12:36:00.961Z,28.80
2018-02-22T12:38:29.987Z,27.30
2018-02-22T12:40:58.299Z,27.30
2018-02-22T12:43:26.575Z,25.80
2018-02-22T12:45:55.187Z,24.80
2018-02-22T12:48:24.533Z,25.30
2018-02-22T12:50:52.806Z,25.20
2018-02-22T12:53:21.108Z,25.40
2018-02-22T12:55:49.394Z,25.80
2018-02-22T12:58:17.694Z,27.60
2018-02-22T13:00:45.986Z,27.90
2018-02-22T13:03:15.150Z,26.90
2018-02-22T13:05:43.410Z,26.90
2018-02-22T13:08:11.693Z,26.80
2018-02-22T13:10:39.964Z,25.70
2018-02-22T13:13:08.264Z,25.30
2018-02-22T13:15:36.560Z,25.00
2018-02-22T13:18:04.825Z,24.90
2018-02-22T13:20:33.124Z,25.00
2018-02-22T13:23:01.429Z,24.70
2018-02-22T13:25:30.471Z,23.50
2018-02-22T13:27:58.753Z,23.50
2018-02-22T13:30:27.043Z,23.30
2018-02-22T13:33:07.110Z,23.10
2018-02-22T13:35:35.786Z,22.90
2018-02-22T13:38:16.602Z,22.80
2018-02-22T13:40:45.939Z,22.40
2018-02-22T13:43:14.228Z,22.30
2018-02-22T13:45:42.506Z,21.70
2018-02-22T13:48:10.864Z,21.00
2018-02-22T13:53:38.669Z,20.70
2018-02-22T13:56:07.814Z,21.40
2018-02-22T13:58:36.017Z,21.40
2018-02-22T14:01:16.098Z,21.80
2018-02-22T14:03:44.411Z,22.30
2018-02-22T14:06:12.680Z,23.00
2018-02-22T14:08:45.322Z,23.70
2018-02-22T14:11:13.600Z,23.70
2018-02-22T14:13:41.884Z,23.90
2018-02-22T14:16:10.144Z,24.20
2018-02-22T14:18:38.460Z,24.30
2018-02-22T14:21:06.731Z,24.50
2018-02-22T14:23:35.074Z,24.40
2018-02-22T14:26:03.388Z,24.60
2018-02-22T14:28:31.693Z,24.70
2018-02-22T14:31:00.012Z,25.00
2018-02-22T14:33:28.287Z,25.20
2018-02-22T14:35:56.594Z,25.40
2018-02-22T14:38:25.670Z,25.50
2018-02-22T14:40:53.999Z,25.60
2018-02-22T14:43:23.171Z,25.40
2018-02-22T14:45:51.503Z,25.40
2018-02-22T14:48:19.801Z,25.40
2018-02-22T14:50:48.106Z,25.50
2018-02-22T14:53:16.400Z,25.50
2018-02-22T14:55:45.448Z,25.70
2018-02-22T14:58:13.727Z,25.60
2018-02-22T15:14:09.608Z,26.40
2018-02-22T15:16:38.642Z,26.50
2018-02-22T15:19:07.706Z,26.50
2018-02-22T15:21:35.992Z,26.50
2018-02-22T15:24:04.472Z,26.70
2018-02-22T15:26:32.768Z,26.70
2018-02-22T15:29:01.424Z,26.70
2018-02-22T15:31:30.468Z,26.90
2018-02-22T15:33:58.730Z,26.90
2018-02-22T15:36:27.035Z,27.00
2018-02-22T15:38:55.317Z,27.00
2018-02-22T15:41:23.675Z,27.10
2018-02-22T15:43:51.987Z,26.90
2018-02-22T15:46:20.535Z,27.00
2018-02-22T15:48:48.789Z,27.10
2018-02-22T15:51:17.098Z,27.10
2018-02-22T15:53:45.360Z,27.20
2018-02-22T15:56:13.958Z,27.40
2018-02-22T15:58:42.259Z,27.90
2018-02-22T16:01:10.528Z,27.40
2018-02-22T16:03:38.820Z,27.60
2018-02-22T16:06:07.076Z,27.60
2018-02-22T16:08:35.384Z,27.70
2018-02-22T16:11:03.925Z,27.70
2018-02-22T16:13:32.215Z,27.80
2018-02-22T16:16:00.640Z,27.90
2018-02-22T16:18:29.719Z,28.10
2018-02-22T16:20:59.079Z,27.80
2018-02-22T16:23:27.359Z,28.30
2018-02-22T16:25:55.682Z,28.30
2018-02-22T16:28:24.807Z,28.50
2018-02-22T16:30:53.149Z,28.40
2018-02-22T16:33:21.394Z,28.50
2018-02-22T16:35:49.735Z,28.60
2018-02-22T16:38:18.042Z,28.60
2018-02-22T16:40:46.329Z,28.70
2018-02-22T16:43:14.682Z,28.80
2018-02-22T16:45:42.972Z,28.80
2018-02-22T16:48:11.329Z,28.90
2018-02-22T16:50:39.658Z,29.00
2018-02-22T16:53:08.097Z,29.00
2018-02-22T16:55:36.397Z,29.10
2018-02-22T16:58:04.720Z,29.10
2018-02-22T17:00:33.057Z,29.20
2018-02-22T17:03:01.471Z,29.20
2018-02-22T17:05:29.898Z,29.40
2018-02-22T17:07:58.198Z,29.40
2018-02-22T17:10:26.507Z,29.50
2018-02-22T17:12:54.835Z,29.50
2018-02-22T17:15:23.288Z,29.50
2018-02-22T17:17:51.574Z,29.70
2018-02-22T17:20:20.660Z,29.70
2018-02-22T17:22:49.062Z,29.70
2018-02-22T17:25:16.891Z,29.70
2018-02-22T17:27:50.958Z,29.70
2018-02-22T17:30:24.901Z,29.70
2018-02-22T17:32:53.263Z,29.70
2018-02-22T17:35:27.301Z,30.20
2018-02-22T17:38:12.226Z,29.80
2018-02-22T17:40:42.383Z,29.80
2018-02-22T17:43:11.597Z,29.80
2018-02-22T17:45:39.983Z,29.90
2018-02-22T17:48:08.266Z,30.40
2018-02-22T17:50:37.349Z,30.00
2018-02-22T17:53:05.686Z,30.00
2018-02-22T17:55:34.019Z,30.00
2018-02-22T17:58:02.294Z,30.00
2018-02-22T18:00:31.368Z,30.00
2018-02-22T18:02:59.638Z,30.00
2018-02-22T18:05:27.978Z,30.10
2018-02-22T18:07:56.242Z,30.20
2018-02-22T18:10:24.558Z,30.30
2018-02-22T18:12:52.870Z,30.30
2018-02-22T18:15:21.267Z,30.50
2018-02-22T18:17:49.599Z,31.10
2018-02-22T18:20:17.932Z,30.60
2018-02-22T18:22:47.018Z,30.80
2018-02-22T18:25:15.358Z,30.80
2018-02-22T18:27:43.738Z,30.80
2018-02-22T18:30:12.082Z,30.80
2018-02-22T18:32:40.445Z,30.80
2018-02-22T18:35:09.524Z,31.40
2018-02-22T18:37:43.742Z,30.90
2018-02-22T18:40:17.656Z,30.80
2018-02-22T18:42:49.879Z,30.90
2018-02-22T18:45:18.206Z,30.70
2018-02-22T18:47:46.602Z,30.80
2018-02-22T18:50:16.501Z,30.90
2018-02-22T18:52:45.302Z,30.90
2018-02-22T18:55:13.645Z,30.80
2018-02-22T18:57:41.960Z,31.00
2018-02-22T19:00:10.634Z,31.00
2018-02-22T19:02:38.930Z,31.10
2018-02-22T19:05:08.965Z,31.20
2018-02-22T19:07:38.136Z,31.00
2018-02-22T19:10:06.449Z,31.20
2018-02-22T19:12:34.777Z,31.40
2018-02-22T19:15:03.058Z,31.40
2018-02-22T19:17:31.435Z,31.40
2018-02-22T19:19:59.799Z,31.50
2018-02-22T19:22:28.282Z,31.40
2018-02-22T19:24:56.666Z,31.60
2018-02-22T19:27:25.001Z,31.60
2018-02-22T19:29:54.221Z,31.90
2018-02-22T19:32:22.665Z,32.00
2018-02-22T19:34:51.052Z,32.10
2018-02-22T19:37:20.962Z,32.80
2018-02-22T19:39:50.091Z,32.20
2018-02-22T19:42:18.456Z,32.30
2018-02-22T19:44:47.585Z,32.20
2018-02-22T19:47:15.960Z,32.20
2018-02-22T19:49:44.298Z,32.30
2018-02-22T19:52:13.595Z,32.20
2018-02-22T19:54:42.660Z,32.70
2018-02-22T19:57:10.988Z,32.20
2018-02-22T19:59:39.379Z,32.30
2018-02-22T20:02:07.805Z,33.10
2018-02-22T20:04:36.111Z,32.50
2018-02-22T20:07:05.213Z,32.60
2018-02-22T20:09:33.584Z,32.60
2018-02-22T20:12:01.971Z,32.60
2018-02-22T20:14:31.078Z,32.70
2018-02-22T20:16:59.366Z,32.70
2018-02-22T20:19:27.719Z,32.80
2018-02-22T20:21:57.083Z,32.90
2018-02-22T20:24:25.961Z,33.00
2018-02-22T20:26:55.129Z,32.90
2018-02-22T20:29:24.204Z,32.90
2018-02-22T20:31:52.578Z,32.90
2018-02-22T20:34:21.083Z,33.00
2018-02-22T20:36:50.160Z,33.00
2018-02-22T20:39:18.525Z,33.10
2018-02-22T20:41:47.074Z,33.10
2018-02-22T20:44:16.246Z,33.30
2018-02-22T20:46:44.572Z,33.30
2018-02-22T20:49:13.601Z,33.10
2018-02-22T20:51:44.581Z,33.10
2018-02-22T20:54:12.912Z,33.20
2018-02-22T20:56:42.018Z,33.30
2018-02-22T20:59:10.334Z,33.20
2018-02-22T21:01:38.606Z,33.40
2018-02-22T21:04:08.798Z,33.50
2018-02-22T21:06:37.074Z,33.60
2018-02-22T21:09:05.691Z,33.70
2018-02-22T21:11:33.991Z,33.70
2018-02-22T21:14:02.307Z,33.90
2018-02-22T21:16:31.418Z,33.90
2018-02-22T21:19:01.189Z,34.10
2018-02-22T21:21:30.286Z,34.10
2018-02-22T21:23:58.559Z,34.10
2018-02-22T21:26:26.976Z,34.20
2018-02-22T21:28:55.380Z,34.40
2018-02-22T21:31:24.444Z,34.40
2018-02-22T21:33:52.720Z,34.50
2018-02-22T21:36:21.023Z,34.50
2018-02-22T21:38:49.279Z,34.50
2018-02-22T21:41:17.621Z,34.90
2018-02-22T21:43:45.985Z,34.80
2018-02-22T21:46:14.305Z,35.10
2018-02-22T21:48:42.607Z,35.20
2018-02-22T21:51:10.870Z,35.30
2018-02-22T21:53:39.180Z,35.30
2018-02-22T21:56:08.226Z,35.60
2018-02-22T21:58:36.533Z,35.50
2018-02-22T22:01:04.790Z,35.60
2018-02-22T22:03:33.627Z,35.60
2018-02-22T22:06:02.673Z,35.60
2018-02-22T22:08:30.947Z,35.60
2018-02-22T22:10:59.475Z,35.60
2018-02-22T22:13:27.765Z,35.50
2018-02-22T22:15:56.857Z,35.50
2018-02-22T22:18:25.908Z,35.60
2018-02-22T22:20:54.226Z,36.20
2018-02-22T22:23:23.269Z,35.90
2018-02-22T22:25:51.557Z,35.80
2018-02-22T22:28:19.834Z,35.80
2018-02-22T22:30:48.103Z,35.90
2018-02-22T22:33:16.404Z,35.90
2018-02-22T22:35:44.681Z,35.90
2018-02-22T22:38:12.995Z,35.90
2018-02-22T22:40:41.747Z,36.00
2018-02-22T22:43:10.866Z,36.30
2018-02-22T22:45:39.836Z,36.00
2018-02-22T22:48:08.146Z,36.10
2018-02-22T22:50:37.187Z,36.40
2018-02-22T22:53:05.542Z,36.40
2018-02-22T22:55:33.830Z,36.40
2018-02-22T22:58:02.106Z,36.60
2018-02-22T23:00:30.422Z,36.60
2018-02-22T23:02:58.688Z,36.80
2018-02-22T23:05:26.995Z,36.90
2018-02-22T23:07:55.272Z,36.90
2018-02-22T23:10:23.563Z,36.80
2018-02-22T23:12:52.638Z,37.00
2018-02-22T23:15:20.942Z,37.00
2018-02-22T23:17:50.021Z,37.10
2018-02-22T23:20:18.292Z,37.10
2018-02-22T23:22:46.600Z,37.20
2018-02-22T23:25:15.612Z,37.30
2018-02-22T23:27:43.930Z,37.30
2018-02-22T23:30:12.190Z,37.40
2018-02-22T23:32:40.514Z,37.40
2018-02-22T23:35:08.771Z,37.60
2018-02-22T23:37:37.104Z,37.70
2018-02-22T23:40:06.186Z,37.90
2018-02-22T23:42:34.902Z,38.00
2018-02-22T23:45:03.208Z,38.20
2018-02-22T23:47:31.592Z,38.20
2018-02-22T23:49:59.880Z,38.10
2018-02-22T23:52:28.159Z,38.10
2018-02-22T23:54:56.466Z,38.10
2018-02-22T23:57:24.734Z,38.10
2018-02-22T23:59:54.051Z,38.10
